sensor_id;sensor_type;location;lat;lon;timestamp;temperature;humidity
18777;DHT22;9517;51.174;4.160;2022-09-09T00:02:20;15.50;99.90
18777;DHT22;9517;51.174;4.160;2022-09-09T00:04:58;15.40;99.90
18777;DHT22;9517;51.174;4.160;2022-09-09T00:07:37;15.50;99.90
18777;DHT22;9517;51.174;4.160;2022-09-09T00:10:16;15.50;99.90
18777;DHT22;9517;51.174;4.160;2022-09-09T00:12:52;15.40;99.90
18777;DHT22;9517;51.174;4.160;2022-09-09T00:15:25;15.40;99.90
18777;DHT22;9517;51.174;4.160;2022-09-09T00:17:56;15.40;99.90
18777;DHT22;9517;51.174;4.160;2022-09-09T00:20:32;15.30;99.90
18777;DHT22;9517;51.174;4.160;2022-09-09T00:23:09;15.40;99.90
18777;DHT22;9517;51.174;4.160;2022-09-09T00:25:41;15.50;99.90
18777;DHT22;9517;51.174;4.160;2022-09-09T00:28:16;15.40;99.90
18777;DHT22;9517;51.174;4.160;2022-09-09T00:30:45;15.40;99.90
18777;DHT22;9517;51.174;4.160;2022-09-09T00:33:15;15.40;99.90
18777;DHT22;9517;51.174;4.160;2022-09-09T00:35:45;15.40;99.90
18777;DHT22;9517;51.174;4.160;2022-09-09T00:38:16;15.40;99.90
18777;DHT22;9517;51.174;4.160;2022-09-09T00:40:49;15.30;99.90
18777;DHT22;9517;51.174;4.160;2022-09-09T00:43:26;15.40;99.90
18777;DHT22;9517;51.174;4.160;2022-09-09T00:46:08;15.40;99.90
18777;DHT22;9517;51.174;4.160;2022-09-09T00:48:45;15.40;99.90
18777;DHT22;9517;51.174;4.160;2022-09-09T00:51:17;15.30;99.90
18777;DHT22;9517;51.174;4.160;2022-09-09T00:54:08;15.30;99.90
18777;DHT22;9517;51.174;4.160;2022-09-09T00:56:40;15.30;99.90
18777;DHT22;9517;51.174;4.160;2022-09-09T00:59:22;15.30;99.90
18777;DHT22;9517;51.174;4.160;2022-09-09T01:01:51;15.30;99.90
18777;DHT22;9517;51.174;4.160;2022-09-09T01:04:28;15.30;99.90
18777;DHT22;9517;51.174;4.160;2022-09-09T01:07:02;15.40;99.90
18777;DHT22;9517;51.174;4.160;2022-09-09T01:09:37;15.40;99.90
18777;DHT22;9517;51.174;4.160;2022-09-09T01:12:11;15.30;99.90
18777;DHT22;9517;51.174;4.160;2022-09-09T01:14:43;15.20;99.90
18777;DHT22;9517;51.174;4.160;2022-09-09T01:17:16;15.30;99.90
18777;DHT22;9517;51.174;4.160;2022-09-09T01:19:55;15.20;99.90
18777;DHT22;9517;51.174;4.160;2022-09-09T01:22:32;15.20;99.90
18777;DHT22;9517;51.174;4.160;2022-09-09T01:25:28;15.10;99.90
18777;DHT22;9517;51.174;4.160;2022-09-09T01:28:00;15.10;99.90
18777;DHT22;9517;51.174;4.160;2022-09-09T01:30:28;15.20;99.90
18777;DHT22;9517;51.174;4.160;2022-09-09T01:32:57;15.20;99.90
18777;DHT22;9517;51.174;4.160;2022-09-09T01:35:41;15.20;99.90
18777;DHT22;9517;51.174;4.160;2022-09-09T01:38:11;15.20;99.90
18777;DHT22;9517;51.174;4.160;2022-09-09T01:40:38;15.20;99.90
18777;DHT22;9517;51.174;4.160;2022-09-09T01:43:07;15.20;99.90
18777;DHT22;9517;51.174;4.160;2022-09-09T01:45:34;15.30;99.90
18777;DHT22;9517;51.174;4.160;2022-09-09T01:48:02;15.20;99.90
18777;DHT22;9517;51.174;4.160;2022-09-09T01:50:30;15.20;99.90
18777;DHT22;9517;51.174;4.160;2022-09-09T01:52:59;15.10;99.90
18777;DHT22;9517;51.174;4.160;2022-09-09T01:55:30;15.10;99.90
18777;DHT22;9517;51.174;4.160;2022-09-09T01:58:14;15.00;99.90
18777;DHT22;9517;51.174;4.160;2022-09-09T02:00:52;15.00;99.90
18777;DHT22;9517;51.174;4.160;2022-09-09T02:03:25;15.00;99.90
18777;DHT22;9517;51.174;4.160;2022-09-09T02:06:00;15.00;99.90
18777;DHT22;9517;51.174;4.160;2022-09-09T02:08:35;15.00;99.90
18777;DHT22;9517;51.174;4.160;2022-09-09T02:11:09;15.10;99.90
18777;DHT22;9517;51.174;4.160;2022-09-09T02:13:40;15.10;99.90
18777;DHT22;9517;51.174;4.160;2022-09-09T02:16:10;15.10;99.90
18777;DHT22;9517;51.174;4.160;2022-09-09T02:18:44;15.00;99.90
18777;DHT22;9517;51.174;4.160;2022-09-09T02:21:13;15.10;99.90
18777;DHT22;9517;51.174;4.160;2022-09-09T02:23:42;15.20;99.90
18777;DHT22;9517;51.174;4.160;2022-09-09T02:26:12;15.20;99.90
18777;DHT22;9517;51.174;4.160;2022-09-09T02:28:47;15.10;99.90
18777;DHT22;9517;51.174;4.160;2022-09-09T02:31:18;15.10;99.90
18777;DHT22;9517;51.174;4.160;2022-09-09T02:33:51;15.10;99.90
18777;DHT22;9517;51.174;4.160;2022-09-09T02:36:20;15.10;99.90
18777;DHT22;9517;51.174;4.160;2022-09-09T02:38:50;15.20;99.90
18777;DHT22;9517;51.174;4.160;2022-09-09T02:41:21;15.20;99.90
18777;DHT22;9517;51.174;4.160;2022-09-09T02:43:52;15.20;99.90
18777;DHT22;9517;51.174;4.160;2022-09-09T02:46:36;15.10;99.90
18777;DHT22;9517;51.174;4.160;2022-09-09T02:49:10;15.10;99.90
18777;DHT22;9517;51.174;4.160;2022-09-09T02:51:44;15.10;99.90
18777;DHT22;9517;51.174;4.160;2022-09-09T02:54:17;15.10;99.90
18777;DHT22;9517;51.174;4.160;2022-09-09T02:56:51;15.10;99.90
18777;DHT22;9517;51.174;4.160;2022-09-09T02:59:24;15.20;99.90
18777;DHT22;9517;51.174;4.160;2022-09-09T03:01:55;15.30;99.90
18777;DHT22;9517;51.174;4.160;2022-09-09T03:04:22;15.20;99.90
18777;DHT22;9517;51.174;4.160;2022-09-09T03:06:50;15.20;99.90
18777;DHT22;9517;51.174;4.160;2022-09-09T03:09:20;15.20;99.90
18777;DHT22;9517;51.174;4.160;2022-09-09T03:11:49;15.10;99.90
18777;DHT22;9517;51.174;4.160;2022-09-09T03:14:16;15.10;99.90
18777;DHT22;9517;51.174;4.160;2022-09-09T03:16:51;15.10;99.90
18777;DHT22;9517;51.174;4.160;2022-09-09T03:19:20;15.20;99.90
18777;DHT22;9517;51.174;4.160;2022-09-09T03:21:47;15.10;99.90
18777;DHT22;9517;51.174;4.160;2022-09-09T03:24:15;15.10;99.90
18777;DHT22;9517;51.174;4.160;2022-09-09T03:26:42;15.10;99.90
18777;DHT22;9517;51.174;4.160;2022-09-09T03:29:11;15.00;99.90
18777;DHT22;9517;51.174;4.160;2022-09-09T03:31:39;15.10;99.90
18777;DHT22;9517;51.174;4.160;2022-09-09T03:34:07;15.10;99.90
18777;DHT22;9517;51.174;4.160;2022-09-09T03:36:34;15.10;99.90
18777;DHT22;9517;51.174;4.160;2022-09-09T03:39:02;15.10;99.90
18777;DHT22;9517;51.174;4.160;2022-09-09T03:41:29;15.10;99.90
18777;DHT22;9517;51.174;4.160;2022-09-09T03:43:57;15.10;99.90
18777;DHT22;9517;51.174;4.160;2022-09-09T03:46:25;15.00;99.90
18777;DHT22;9517;51.174;4.160;2022-09-09T03:48:53;15.10;99.90
18777;DHT22;9517;51.174;4.160;2022-09-09T03:51:22;15.00;99.90
18777;DHT22;9517;51.174;4.160;2022-09-09T03:53:49;15.00;99.90
18777;DHT22;9517;51.174;4.160;2022-09-09T03:56:17;15.00;99.90
18777;DHT22;9517;51.174;4.160;2022-09-09T03:58:51;15.00;99.90
18777;DHT22;9517;51.174;4.160;2022-09-09T04:01:21;15.00;99.90
18777;DHT22;9517;51.174;4.160;2022-09-09T04:03:48;15.20;99.90
18777;DHT22;9517;51.174;4.160;2022-09-09T04:06:16;15.20;99.90
18777;DHT22;9517;51.174;4.160;2022-09-09T04:08:44;15.20;99.90
18777;DHT22;9517;51.174;4.160;2022-09-09T04:11:14;15.10;99.90
18777;DHT22;9517;51.174;4.160;2022-09-09T04:13:41;15.10;99.90
18777;DHT22;9517;51.174;4.160;2022-09-09T04:16:11;15.10;99.90
18777;DHT22;9517;51.174;4.160;2022-09-09T04:18:39;15.00;99.90
18777;DHT22;9517;51.174;4.160;2022-09-09T04:21:06;15.10;99.90
18777;DHT22;9517;51.174;4.160;2022-09-09T04:23:33;15.10;99.90
18777;DHT22;9517;51.174;4.160;2022-09-09T04:26:03;15.00;99.90
18777;DHT22;9517;51.174;4.160;2022-09-09T04:28:32;15.00;99.90
18777;DHT22;9517;51.174;4.160;2022-09-09T04:31:04;15.00;99.90
18777;DHT22;9517;51.174;4.160;2022-09-09T04:33:31;15.10;99.90
18777;DHT22;9517;51.174;4.160;2022-09-09T04:35:58;15.10;99.90
18777;DHT22;9517;51.174;4.160;2022-09-09T04:38:25;15.20;99.90
18777;DHT22;9517;51.174;4.160;2022-09-09T04:40:52;15.20;99.90
18777;DHT22;9517;51.174;4.160;2022-09-09T04:43:22;15.10;99.90
18777;DHT22;9517;51.174;4.160;2022-09-09T04:45:52;15.10;99.90
18777;DHT22;9517;51.174;4.160;2022-09-09T04:48:20;15.00;99.90
18777;DHT22;9517;51.174;4.160;2022-09-09T04:50:55;15.10;99.90
18777;DHT22;9517;51.174;4.160;2022-09-09T04:53:22;15.10;99.90
18777;DHT22;9517;51.174;4.160;2022-09-09T04:55:51;15.00;99.90
18777;DHT22;9517;51.174;4.160;2022-09-09T04:58:18;15.00;99.90
18777;DHT22;9517;51.174;4.160;2022-09-09T05:00:49;15.10;99.90
18777;DHT22;9517;51.174;4.160;2022-09-09T05:03:20;15.10;99.90
18777;DHT22;9517;51.174;4.160;2022-09-09T05:05:47;15.10;99.90
18777;DHT22;9517;51.174;4.160;2022-09-09T05:08:14;15.20;99.90
18777;DHT22;9517;51.174;4.160;2022-09-09T05:10:41;15.30;99.90
18777;DHT22;9517;51.174;4.160;2022-09-09T05:13:09;15.20;99.90
18777;DHT22;9517;51.174;4.160;2022-09-09T05:15:36;15.20;99.90
18777;DHT22;9517;51.174;4.160;2022-09-09T05:18:05;15.30;99.90
18777;DHT22;9517;51.174;4.160;2022-09-09T05:20:32;15.40;99.90
18777;DHT22;9517;51.174;4.160;2022-09-09T05:22:59;15.40;99.90
18777;DHT22;9517;51.174;4.160;2022-09-09T05:25:26;15.40;99.90
18777;DHT22;9517;51.174;4.160;2022-09-09T05:27:53;15.50;99.90
18777;DHT22;9517;51.174;4.160;2022-09-09T05:30:21;15.60;99.90
18777;DHT22;9517;51.174;4.160;2022-09-09T05:32:51;15.60;99.90
18777;DHT22;9517;51.174;4.160;2022-09-09T05:35:20;15.60;99.90
18777;DHT22;9517;51.174;4.160;2022-09-09T05:37:48;15.70;99.90
18777;DHT22;9517;51.174;4.160;2022-09-09T05:40:15;15.70;99.90
18777;DHT22;9517;51.174;4.160;2022-09-09T05:42:42;15.70;99.90
18777;DHT22;9517;51.174;4.160;2022-09-09T05:45:10;15.70;99.90
18777;DHT22;9517;51.174;4.160;2022-09-09T05:47:37;15.70;99.90
18777;DHT22;9517;51.174;4.160;2022-09-09T05:50:04;15.70;99.90
18777;DHT22;9517;51.174;4.160;2022-09-09T05:52:33;15.70;99.90
18777;DHT22;9517;51.174;4.160;2022-09-09T05:55:00;15.70;99.90
18777;DHT22;9517;51.174;4.160;2022-09-09T05:57:30;15.80;99.90
18777;DHT22;9517;51.174;4.160;2022-09-09T05:59:57;15.80;99.90
18777;DHT22;9517;51.174;4.160;2022-09-09T06:02:23;15.70;99.90
18777;DHT22;9517;51.174;4.160;2022-09-09T06:04:51;15.70;99.90
18777;DHT22;9517;51.174;4.160;2022-09-09T06:07:18;15.70;99.90
18777;DHT22;9517;51.174;4.160;2022-09-09T06:09:47;15.70;99.90
18777;DHT22;9517;51.174;4.160;2022-09-09T06:12:14;15.70;99.90
18777;DHT22;9517;51.174;4.160;2022-09-09T06:14:41;15.70;99.90
18777;DHT22;9517;51.174;4.160;2022-09-09T06:17:08;15.80;99.90
18777;DHT22;9517;51.174;4.160;2022-09-09T06:19:35;15.80;99.90
18777;DHT22;9517;51.174;4.160;2022-09-09T06:22:02;15.80;99.90
18777;DHT22;9517;51.174;4.160;2022-09-09T06:24:31;15.90;99.90
18777;DHT22;9517;51.174;4.160;2022-09-09T06:26:59;15.90;99.90
18777;DHT22;9517;51.174;4.160;2022-09-09T06:29:27;15.80;99.90
18777;DHT22;9517;51.174;4.160;2022-09-09T06:31:54;16.00;99.90
18777;DHT22;9517;51.174;4.160;2022-09-09T06:34:21;16.10;99.90
18777;DHT22;9517;51.174;4.160;2022-09-09T06:36:48;16.40;99.90
18777;DHT22;9517;51.174;4.160;2022-09-09T06:39:16;16.50;99.90
18777;DHT22;9517;51.174;4.160;2022-09-09T06:41:43;16.60;99.90
18777;DHT22;9517;51.174;4.160;2022-09-09T06:44:12;16.70;99.90
18777;DHT22;9517;51.174;4.160;2022-09-09T06:46:42;16.70;99.90
18777;DHT22;9517;51.174;4.160;2022-09-09T06:49:11;16.70;99.90
18777;DHT22;9517;51.174;4.160;2022-09-09T06:51:38;16.90;99.90
18777;DHT22;9517;51.174;4.160;2022-09-09T06:54:08;16.90;99.90
18777;DHT22;9517;51.174;4.160;2022-09-09T06:56:37;16.90;99.90
18777;DHT22;9517;51.174;4.160;2022-09-09T06:59:07;16.70;99.90
18777;DHT22;9517;51.174;4.160;2022-09-09T07:01:37;16.30;99.90
18777;DHT22;9517;51.174;4.160;2022-09-09T07:04:06;16.20;99.90
18777;DHT22;9517;51.174;4.160;2022-09-09T07:06:35;16.10;99.90
18777;DHT22;9517;51.174;4.160;2022-09-09T07:09:04;16.10;99.90
18777;DHT22;9517;51.174;4.160;2022-09-09T07:11:32;15.90;99.90
18777;DHT22;9517;51.174;4.160;2022-09-09T07:14:03;15.80;99.90
18777;DHT22;9517;51.174;4.160;2022-09-09T07:16:30;15.80;99.90
18777;DHT22;9517;51.174;4.160;2022-09-09T07:19:00;15.80;99.90
18777;DHT22;9517;51.174;4.160;2022-09-09T07:21:29;15.80;99.90
18777;DHT22;9517;51.174;4.160;2022-09-09T07:23:58;15.90;99.90
18777;DHT22;9517;51.174;4.160;2022-09-09T07:26:27;16.10;99.90
18777;DHT22;9517;51.174;4.160;2022-09-09T07:28:54;16.40;99.90
18777;DHT22;9517;51.174;4.160;2022-09-09T07:31:25;16.30;99.90
18777;DHT22;9517;51.174;4.160;2022-09-09T07:33:52;16.40;99.90
18777;DHT22;9517;51.174;4.160;2022-09-09T07:36:23;16.60;99.90
18777;DHT22;9517;51.174;4.160;2022-09-09T07:38:52;16.80;99.90
18777;DHT22;9517;51.174;4.160;2022-09-09T07:41:21;17.00;99.90
18777;DHT22;9517;51.174;4.160;2022-09-09T07:43:50;17.30;99.90
18777;DHT22;9517;51.174;4.160;2022-09-09T07:46:21;17.20;99.90
18777;DHT22;9517;51.174;4.160;2022-09-09T07:48:51;17.10;99.90
18777;DHT22;9517;51.174;4.160;2022-09-09T07:51:25;16.80;99.90
18777;DHT22;9517;51.174;4.160;2022-09-09T07:53:54;16.60;99.90
18777;DHT22;9517;51.174;4.160;2022-09-09T07:56:23;16.80;99.90
18777;DHT22;9517;51.174;4.160;2022-09-09T07:58:51;16.80;99.90
18777;DHT22;9517;51.174;4.160;2022-09-09T08:01:21;17.00;99.90
18777;DHT22;9517;51.174;4.160;2022-09-09T08:03:54;17.10;99.90
18777;DHT22;9517;51.174;4.160;2022-09-09T08:06:26;17.30;99.90
18777;DHT22;9517;51.174;4.160;2022-09-09T08:08:54;17.40;99.90
18777;DHT22;9517;51.174;4.160;2022-09-09T08:11:23;17.30;99.90
18777;DHT22;9517;51.174;4.160;2022-09-09T08:13:51;17.50;99.90
18777;DHT22;9517;51.174;4.160;2022-09-09T08:16:21;17.80;99.90
18777;DHT22;9517;51.174;4.160;2022-09-09T08:18:49;18.00;99.90
18777;DHT22;9517;51.174;4.160;2022-09-09T08:21:18;17.90;99.90
18777;DHT22;9517;51.174;4.160;2022-09-09T08:23:50;17.90;99.90
18777;DHT22;9517;51.174;4.160;2022-09-09T08:26:19;17.80;99.90
18777;DHT22;9517;51.174;4.160;2022-09-09T08:28:49;17.70;99.90
18777;DHT22;9517;51.174;4.160;2022-09-09T08:31:19;17.80;99.90
18777;DHT22;9517;51.174;4.160;2022-09-09T08:33:47;17.60;99.90
18777;DHT22;9517;51.174;4.160;2022-09-09T08:36:16;17.50;99.90
18777;DHT22;9517;51.174;4.160;2022-09-09T08:38:43;17.40;99.90
18777;DHT22;9517;51.174;4.160;2022-09-09T08:41:44;17.20;99.90
18777;DHT22;9517;51.174;4.160;2022-09-09T08:44:23;17.20;99.90
18777;DHT22;9517;51.174;4.160;2022-09-09T08:46:59;17.20;99.90
18777;DHT22;9517;51.174;4.160;2022-09-09T08:49:50;17.10;99.90
18777;DHT22;9517;51.174;4.160;2022-09-09T08:52:25;17.00;99.90
18777;DHT22;9517;51.174;4.160;2022-09-09T08:54:55;16.90;99.90
18777;DHT22;9517;51.174;4.160;2022-09-09T08:57:28;16.90;99.90
18777;DHT22;9517;51.174;4.160;2022-09-09T08:59:57;16.90;99.90
18777;DHT22;9517;51.174;4.160;2022-09-09T09:02:30;16.80;99.90
18777;DHT22;9517;51.174;4.160;2022-09-09T09:05:09;16.80;99.90
18777;DHT22;9517;51.174;4.160;2022-09-09T09:07:52;16.80;99.90
18777;DHT22;9517;51.174;4.160;2022-09-09T09:10:33;16.70;99.90
18777;DHT22;9517;51.174;4.160;2022-09-09T09:13:10;16.70;99.90
18777;DHT22;9517;51.174;4.160;2022-09-09T09:15:39;16.60;99.90
18777;DHT22;9517;51.174;4.160;2022-09-09T09:18:10;16.60;99.90
18777;DHT22;9517;51.174;4.160;2022-09-09T09:20:45;16.60;99.90
18777;DHT22;9517;51.174;4.160;2022-09-09T09:23:21;16.60;99.90
18777;DHT22;9517;51.174;4.160;2022-09-09T09:25:50;16.60;99.90
18777;DHT22;9517;51.174;4.160;2022-09-09T09:28:24;16.70;99.90
18777;DHT22;9517;51.174;4.160;2022-09-09T09:30:55;16.80;99.90
18777;DHT22;9517;51.174;4.160;2022-09-09T09:33:30;16.80;99.90
18777;DHT22;9517;51.174;4.160;2022-09-09T09:35:58;16.90;99.90
18777;DHT22;9517;51.174;4.160;2022-09-09T09:38:27;16.90;99.90
18777;DHT22;9517;51.174;4.160;2022-09-09T09:40:56;17.00;99.90
18777;DHT22;9517;51.174;4.160;2022-09-09T09:43:27;17.10;99.90
18777;DHT22;9517;51.174;4.160;2022-09-09T09:45:55;17.10;99.90
18777;DHT22;9517;51.174;4.160;2022-09-09T09:48:24;17.00;99.90
18777;DHT22;9517;51.174;4.160;2022-09-09T09:50:53;16.90;99.90
18777;DHT22;9517;51.174;4.160;2022-09-09T09:53:24;16.90;99.90
18777;DHT22;9517;51.174;4.160;2022-09-09T09:55:55;17.10;99.90
18777;DHT22;9517;51.174;4.160;2022-09-09T09:58:24;17.20;99.90
18777;DHT22;9517;51.174;4.160;2022-09-09T10:00:53;17.20;99.90
18777;DHT22;9517;51.174;4.160;2022-09-09T10:03:24;17.30;99.90
18777;DHT22;9517;51.174;4.160;2022-09-09T10:05:52;17.40;99.90
18777;DHT22;9517;51.174;4.160;2022-09-09T10:08:19;17.70;99.90
18777;DHT22;9517;51.174;4.160;2022-09-09T10:11:04;18.00;99.90
18777;DHT22;9517;51.174;4.160;2022-09-09T10:13:41;18.00;99.90
18777;DHT22;9517;51.174;4.160;2022-09-09T10:16:25;18.00;99.90
18777;DHT22;9517;51.174;4.160;2022-09-09T10:18:59;18.00;99.90
18777;DHT22;9517;51.174;4.160;2022-09-09T10:22:01;18.10;99.90
18777;DHT22;9517;51.174;4.160;2022-09-09T10:24:58;17.90;99.90
18777;DHT22;9517;51.174;4.160;2022-09-09T10:27:33;18.00;99.90
18777;DHT22;9517;51.174;4.160;2022-09-09T10:30:09;18.10;99.90
18777;DHT22;9517;51.174;4.160;2022-09-09T10:32:45;18.10;99.90
18777;DHT22;9517;51.174;4.160;2022-09-09T10:35:24;18.20;99.90
18777;DHT22;9517;51.174;4.160;2022-09-09T10:38:03;18.00;99.90
18777;DHT22;9517;51.174;4.160;2022-09-09T10:40:39;17.90;99.90
18777;DHT22;9517;51.174;4.160;2022-09-09T10:43:16;18.00;99.90
18777;DHT22;9517;51.174;4.160;2022-09-09T10:45:55;18.20;99.90
18777;DHT22;9517;51.174;4.160;2022-09-09T10:48:45;18.30;99.90
18777;DHT22;9517;51.174;4.160;2022-09-09T10:51:24;18.30;99.90
18777;DHT22;9517;51.174;4.160;2022-09-09T10:54:08;18.20;99.90
18777;DHT22;9517;51.174;4.160;2022-09-09T10:56:42;18.10;99.90
18777;DHT22;9517;51.174;4.160;2022-09-09T10:59:16;18.10;99.90
18777;DHT22;9517;51.174;4.160;2022-09-09T11:01:50;18.30;99.90
18777;DHT22;9517;51.174;4.160;2022-09-09T11:04:23;18.50;99.90
18777;DHT22;9517;51.174;4.160;2022-09-09T11:06:55;18.80;99.90
18777;DHT22;9517;51.174;4.160;2022-09-09T11:09:24;18.70;99.90
18777;DHT22;9517;51.174;4.160;2022-09-09T11:11:57;18.60;99.90
18777;DHT22;9517;51.174;4.160;2022-09-09T11:14:29;18.80;99.90
18777;DHT22;9517;51.174;4.160;2022-09-09T11:17:02;19.00;99.90
18777;DHT22;9517;51.174;4.160;2022-09-09T11:19:34;19.00;99.90
18777;DHT22;9517;51.174;4.160;2022-09-09T11:22:06;19.30;99.90
18777;DHT22;9517;51.174;4.160;2022-09-09T11:24:37;19.50;99.90
18777;DHT22;9517;51.174;4.160;2022-09-09T11:27:11;19.70;99.90
18777;DHT22;9517;51.174;4.160;2022-09-09T11:29:54;19.90;99.90
18777;DHT22;9517;51.174;4.160;2022-09-09T11:32:48;20.10;99.90
18777;DHT22;9517;51.174;4.160;2022-09-09T11:35:33;20.20;99.90
18777;DHT22;9517;51.174;4.160;2022-09-09T11:38:14;20.20;99.90
18777;DHT22;9517;51.174;4.160;2022-09-09T11:40:43;20.50;99.90
18777;DHT22;9517;51.174;4.160;2022-09-09T11:43:12;20.90;99.90
18777;DHT22;9517;51.174;4.160;2022-09-09T11:45:41;20.80;99.90
18777;DHT22;9517;51.174;4.160;2022-09-09T11:48:24;20.80;99.90
18777;DHT22;9517;51.174;4.160;2022-09-09T11:51:05;20.90;99.90
18777;DHT22;9517;51.174;4.160;2022-09-09T11:53:33;20.70;99.90
18777;DHT22;9517;51.174;4.160;2022-09-09T11:58:41;20.50;99.90
18777;DHT22;9517;51.174;4.160;2022-09-09T12:01:36;20.20;99.90
18777;DHT22;9517;51.174;4.160;2022-09-09T12:04:29;20.00;99.90
18777;DHT22;9517;51.174;4.160;2022-09-09T12:07:00;20.40;99.90
18777;DHT22;9517;51.174;4.160;2022-09-09T12:09:44;20.60;99.90
18777;DHT22;9517;51.174;4.160;2022-09-09T12:12:25;21.10;99.90
18777;DHT22;9517;51.174;4.160;2022-09-09T12:14:59;21.20;99.90
18777;DHT22;9517;51.174;4.160;2022-09-09T12:17:28;21.40;99.90
18777;DHT22;9517;51.174;4.160;2022-09-09T12:20:02;21.00;99.90
18777;DHT22;9517;51.174;4.160;2022-09-09T12:22:40;20.70;99.90
18777;DHT22;9517;51.174;4.160;2022-09-09T12:25:18;20.40;99.90
18777;DHT22;9517;51.174;4.160;2022-09-09T12:27:58;20.20;99.90
18777;DHT22;9517;51.174;4.160;2022-09-09T12:30:31;20.10;99.90
18777;DHT22;9517;51.174;4.160;2022-09-09T12:33:02;20.00;99.90
18777;DHT22;9517;51.174;4.160;2022-09-09T12:35:30;19.80;99.90
18777;DHT22;9517;51.174;4.160;2022-09-09T12:38:00;19.90;99.90
18777;DHT22;9517;51.174;4.160;2022-09-09T12:40:29;20.10;99.90
18777;DHT22;9517;51.174;4.160;2022-09-09T12:42:58;20.50;99.90
18777;DHT22;9517;51.174;4.160;2022-09-09T12:45:29;21.40;99.90
18777;DHT22;9517;51.174;4.160;2022-09-09T12:47:59;22.40;99.90
18777;DHT22;9517;51.174;4.160;2022-09-09T12:50:29;23.00;99.90
18777;DHT22;9517;51.174;4.160;2022-09-09T12:53:00;22.50;99.90
18777;DHT22;9517;51.174;4.160;2022-09-09T12:55:31;21.90;99.90
18777;DHT22;9517;51.174;4.160;2022-09-09T12:57:59;21.50;99.90
18777;DHT22;9517;51.174;4.160;2022-09-09T13:00:30;21.40;99.90
18777;DHT22;9517;51.174;4.160;2022-09-09T13:02:58;21.90;99.90
18777;DHT22;9517;51.174;4.160;2022-09-09T13:05:28;21.70;99.90
18777;DHT22;9517;51.174;4.160;2022-09-09T13:08:05;21.40;99.90
18777;DHT22;9517;51.174;4.160;2022-09-09T13:10:35;21.40;99.90
18777;DHT22;9517;51.174;4.160;2022-09-09T13:13:04;22.40;99.90
18777;DHT22;9517;51.174;4.160;2022-09-09T13:15:32;23.00;99.90
18777;DHT22;9517;51.174;4.160;2022-09-09T13:18:06;22.70;99.90
18777;DHT22;9517;51.174;4.160;2022-09-09T13:20:37;23.00;99.90
18777;DHT22;9517;51.174;4.160;2022-09-09T13:23:12;23.10;99.90
18777;DHT22;9517;51.174;4.160;2022-09-09T13:25:39;22.90;99.90
18777;DHT22;9517;51.174;4.160;2022-09-09T13:28:20;22.80;99.90
18777;DHT22;9517;51.174;4.160;2022-09-09T13:30:57;22.50;99.90
18777;DHT22;9517;51.174;4.160;2022-09-09T13:33:31;22.50;99.90
18777;DHT22;9517;51.174;4.160;2022-09-09T13:36:00;22.20;99.90
18777;DHT22;9517;51.174;4.160;2022-09-09T13:38:33;22.10;99.90
18777;DHT22;9517;51.174;4.160;2022-09-09T13:41:03;21.80;99.90
18777;DHT22;9517;51.174;4.160;2022-09-09T13:43:34;22.00;99.90
18777;DHT22;9517;51.174;4.160;2022-09-09T13:46:03;22.00;99.90
18777;DHT22;9517;51.174;4.160;2022-09-09T13:48:31;22.50;99.90
18777;DHT22;9517;51.174;4.160;2022-09-09T13:51:00;22.80;99.90
18777;DHT22;9517;51.174;4.160;2022-09-09T13:53:31;23.10;99.90
18777;DHT22;9517;51.174;4.160;2022-09-09T13:55:58;23.20;99.90
18777;DHT22;9517;51.174;4.160;2022-09-09T13:58:26;23.40;99.90
18777;DHT22;9517;51.174;4.160;2022-09-09T14:00:53;23.50;99.90
18777;DHT22;9517;51.174;4.160;2022-09-09T14:03:21;23.30;99.90
18777;DHT22;9517;51.174;4.160;2022-09-09T14:05:48;23.20;99.90
18777;DHT22;9517;51.174;4.160;2022-09-09T14:08:21;23.50;99.90
18777;DHT22;9517;51.174;4.160;2022-09-09T14:10:51;22.70;99.90
18777;DHT22;9517;51.174;4.160;2022-09-09T14:13:18;22.80;99.90
18777;DHT22;9517;51.174;4.160;2022-09-09T14:15:48;23.20;99.90
18777;DHT22;9517;51.174;4.160;2022-09-09T14:18:15;23.70;99.90
18777;DHT22;9517;51.174;4.160;2022-09-09T14:20:42;24.10;99.90
18777;DHT22;9517;51.174;4.160;2022-09-09T14:23:11;24.20;99.90
18777;DHT22;9517;51.174;4.160;2022-09-09T14:25:40;24.10;99.90
18777;DHT22;9517;51.174;4.160;2022-09-09T14:28:11;23.40;99.90
18777;DHT22;9517;51.174;4.160;2022-09-09T14:30:39;22.80;99.90
18777;DHT22;9517;51.174;4.160;2022-09-09T14:33:06;22.60;99.90
18777;DHT22;9517;51.174;4.160;2022-09-09T14:35:33;22.60;99.90
18777;DHT22;9517;51.174;4.160;2022-09-09T14:38:02;22.60;99.90
18777;DHT22;9517;51.174;4.160;2022-09-09T14:40:29;22.10;99.90
18777;DHT22;9517;51.174;4.160;2022-09-09T14:42:57;21.40;99.90
18777;DHT22;9517;51.174;4.160;2022-09-09T14:45:26;20.60;99.90
18777;DHT22;9517;51.174;4.160;2022-09-09T14:47:54;19.90;99.90
18777;DHT22;9517;51.174;4.160;2022-09-09T14:50:22;19.60;99.90
18777;DHT22;9517;51.174;4.160;2022-09-09T14:52:50;19.50;99.90
18777;DHT22;9517;51.174;4.160;2022-09-09T14:55:17;19.30;99.90
18777;DHT22;9517;51.174;4.160;2022-09-09T14:57:44;19.20;99.90
18777;DHT22;9517;51.174;4.160;2022-09-09T15:00:12;19.40;99.90
18777;DHT22;9517;51.174;4.160;2022-09-09T15:02:41;19.80;99.90
18777;DHT22;9517;51.174;4.160;2022-09-09T15:05:09;20.30;99.90
18777;DHT22;9517;51.174;4.160;2022-09-09T15:07:36;20.40;99.90
18777;DHT22;9517;51.174;4.160;2022-09-09T15:10:04;20.40;99.90
18777;DHT22;9517;51.174;4.160;2022-09-09T15:12:32;20.30;99.90
18777;DHT22;9517;51.174;4.160;2022-09-09T15:15:01;20.20;99.90
18777;DHT22;9517;51.174;4.160;2022-09-09T15:17:28;19.90;99.90
18777;DHT22;9517;51.174;4.160;2022-09-09T15:19:57;19.70;99.90
18777;DHT22;9517;51.174;4.160;2022-09-09T15:22:24;19.50;99.90
18777;DHT22;9517;51.174;4.160;2022-09-09T15:24:51;19.50;99.90
18777;DHT22;9517;51.174;4.160;2022-09-09T15:27:18;19.40;99.90
18777;DHT22;9517;51.174;4.160;2022-09-09T15:29:46;19.20;99.90
18777;DHT22;9517;51.174;4.160;2022-09-09T15:32:13;19.20;99.90
18777;DHT22;9517;51.174;4.160;2022-09-09T15:34:40;19.00;99.90
18777;DHT22;9517;51.174;4.160;2022-09-09T15:37:11;18.80;99.90
18777;DHT22;9517;51.174;4.160;2022-09-09T15:39:39;18.50;99.90
18777;DHT22;9517;51.174;4.160;2022-09-09T15:42:07;18.40;99.90
18777;DHT22;9517;51.174;4.160;2022-09-09T15:44:39;18.20;99.90
18777;DHT22;9517;51.174;4.160;2022-09-09T15:47:09;18.00;99.90
18777;DHT22;9517;51.174;4.160;2022-09-09T15:49:38;17.70;99.90
18777;DHT22;9517;51.174;4.160;2022-09-09T15:52:05;17.50;99.90
18777;DHT22;9517;51.174;4.160;2022-09-09T15:54:54;17.40;99.90
18777;DHT22;9517;51.174;4.160;2022-09-09T15:57:47;17.40;99.90
18777;DHT22;9517;51.174;4.160;2022-09-09T16:00:14;17.40;99.90
18777;DHT22;9517;51.174;4.160;2022-09-09T16:02:42;17.50;99.90
18777;DHT22;9517;51.174;4.160;2022-09-09T16:05:40;17.50;99.90
18777;DHT22;9517;51.174;4.160;2022-09-09T16:08:36;17.60;99.90
18777;DHT22;9517;51.174;4.160;2022-09-09T16:11:06;17.60;99.90
18777;DHT22;9517;51.174;4.160;2022-09-09T16:13:35;17.70;99.90
18777;DHT22;9517;51.174;4.160;2022-09-09T16:16:03;17.70;99.90